sensor_id;sensor_type;location;lat;lon;timestamp;pressure;altitude;pressure_sealevel;temperature;humidity
60646;BME280;46462;32.608;-117.032;2023-11-19T00:00:43;99615.27;;;25.98;49.01
60646;BME280;46462;32.608;-117.032;2023-11-19T00:03:13;99618.48;;;26.29;48.19
60646;BME280;46462;32.608;-117.032;2023-11-19T00:05:43;99624.05;;;26.20;48.39
60646;BME280;46462;32.608;-117.032;2023-11-19T00:08:14;99632.76;;;26.14;48.53
60646;BME280;46462;32.608;-117.032;2023-11-19T00:10:45;99624.00;;;26.08;48.68
60646;BME280;46462;32.608;-117.032;2023-11-19T00:13:15;99619.59;;;26.04;48.75
60646;BME280;46462;32.608;-117.032;2023-11-19T00:15:46;99623.63;;;26.02;48.74
60646;BME280;46462;32.608;-117.032;2023-11-19T00:18:17;99634.20;;;26.04;48.75
60646;BME280;46462;32.608;-117.032;2023-11-19T00:20:47;99633.84;;;26.04;48.73
60646;BME280;46462;32.608;-117.032;2023-11-19T00:23:18;99614.39;;;26.06;48.76
60646;BME280;46462;32.608;-117.032;2023-11-19T00:25:49;99620.46;;;26.05;48.80
60646;BME280;46462;32.608;-117.032;2023-11-19T00:28:19;99629.47;;;26.06;48.81
60646;BME280;46462;32.608;-117.032;2023-11-19T00:30:50;99635.31;;;26.06;48.90
60646;BME280;46462;32.608;-117.032;2023-11-19T00:33:21;99631.02;;;26.06;48.87
60646;BME280;46462;32.608;-117.032;2023-11-19T00:35:51;99624.10;;;26.04;48.84
60646;BME280;46462;32.608;-117.032;2023-11-19T00:38:22;99625.67;;;26.03;48.79
60646;BME280;46462;32.608;-117.032;2023-11-19T00:40:52;99626.45;;;26.03;48.83
60646;BME280;46462;32.608;-117.032;2023-11-19T00:43:23;99624.57;;;26.03;48.87
60646;BME280;46462;32.608;-117.032;2023-11-19T00:45:54;99626.58;;;26.05;48.80
60646;BME280;46462;32.608;-117.032;2023-11-19T00:48:24;99639.24;;;26.05;48.77
60646;BME280;46462;32.608;-117.032;2023-11-19T00:50:55;99656.18;;;26.03;48.88
60646;BME280;46462;32.608;-117.032;2023-11-19T00:53:26;99662.23;;;26.02;48.95
60646;BME280;46462;32.608;-117.032;2023-11-19T00:55:57;99669.59;;;26.00;48.94
60646;BME280;46462;32.608;-117.032;2023-11-19T00:58:27;99679.58;;;25.99;48.96
60646;BME280;46462;32.608;-117.032;2023-11-19T01:00:58;99681.02;;;25.99;48.94
60646;BME280;46462;32.608;-117.032;2023-11-19T01:03:28;99677.87;;;25.99;49.03
60646;BME280;46462;32.608;-117.032;2023-11-19T01:05:59;99678.28;;;25.97;49.06
60646;BME280;46462;32.608;-117.032;2023-11-19T01:08:29;99686.01;;;25.95;49.02
60646;BME280;46462;32.608;-117.032;2023-11-19T01:11:00;99686.01;;;25.94;49.02
60646;BME280;46462;32.608;-117.032;2023-11-19T01:13:31;99691.73;;;25.93;49.01
60646;BME280;46462;32.608;-117.032;2023-11-19T01:16:02;99696.17;;;25.91;48.98
60646;BME280;46462;32.608;-117.032;2023-11-19T01:18:32;99706.11;;;25.89;48.99
60646;BME280;46462;32.608;-117.032;2023-11-19T01:21:03;99714.81;;;25.89;49.01
60646;BME280;46462;32.608;-117.032;2023-11-19T01:23:33;99713.81;;;25.88;49.05
60646;BME280;46462;32.608;-117.032;2023-11-19T01:26:04;99714.40;;;25.89;49.00
60646;BME280;46462;32.608;-117.032;2023-11-19T01:28:34;99722.89;;;25.87;49.09
60646;BME280;46462;32.608;-117.032;2023-11-19T01:31:05;99726.18;;;25.86;49.19
60646;BME280;46462;32.608;-117.032;2023-11-19T01:33:36;99725.30;;;25.85;49.16
60646;BME280;46462;32.608;-117.032;2023-11-19T01:36:07;99728.42;;;25.84;49.16
60646;BME280;46462;32.608;-117.032;2023-11-19T01:38:37;99732.84;;;25.82;49.24
60646;BME280;46462;32.608;-117.032;2023-11-19T01:41:08;99734.36;;;25.79;49.38
60646;BME280;46462;32.608;-117.032;2023-11-19T01:43:39;99738.91;;;25.76;49.40
60646;BME280;46462;32.608;-117.032;2023-11-19T01:46:09;99744.85;;;25.75;49.50
60646;BME280;46462;32.608;-117.032;2023-11-19T01:48:42;99750.11;;;25.73;49.45
60646;BME280;46462;32.608;-117.032;2023-11-19T01:51:10;99751.32;;;25.71;49.53
60646;BME280;46462;32.608;-117.032;2023-11-19T01:53:41;99757.47;;;25.70;49.56
60646;BME280;46462;32.608;-117.032;2023-11-19T01:56:14;99755.74;;;25.67;49.57
60646;BME280;46462;32.608;-117.032;2023-11-19T01:58:42;99752.25;;;25.67;49.57
60646;BME280;46462;32.608;-117.032;2023-11-19T02:01:14;99748.37;;;25.67;49.63
60646;BME280;46462;32.608;-117.032;2023-11-19T02:03:43;99745.73;;;25.65;49.63
60646;BME280;46462;32.608;-117.032;2023-11-19T02:06:14;99742.65;;;25.64;49.65
60646;BME280;46462;32.608;-117.032;2023-11-19T02:08:45;99736.62;;;25.62;49.67
60646;BME280;46462;32.608;-117.032;2023-11-19T02:11:15;99733.97;;;25.63;49.69
60646;BME280;46462;32.608;-117.032;2023-11-19T02:13:46;99728.66;;;25.61;49.65
60646;BME280;46462;32.608;-117.032;2023-11-19T02:16:16;99720.36;;;25.64;49.57
60646;BME280;46462;32.608;-117.032;2023-11-19T02:18:47;99717.21;;;25.66;49.50
60646;BME280;46462;32.608;-117.032;2023-11-19T02:21:17;99716.70;;;25.66;49.57
60646;BME280;46462;32.608;-117.032;2023-11-19T02:23:48;99718.51;;;25.66;49.58
60646;BME280;46462;32.608;-117.032;2023-11-19T02:26:22;99716.41;;;25.68;49.53
60646;BME280;46462;32.608;-117.032;2023-11-19T02:28:49;99727.79;;;25.67;49.46
60646;BME280;46462;32.608;-117.032;2023-11-19T02:31:19;99737.23;;;25.67;49.49
60646;BME280;46462;32.608;-117.032;2023-11-19T02:33:50;99731.66;;;25.67;49.53
60646;BME280;46462;32.608;-117.032;2023-11-19T02:36:21;99728.72;;;25.67;49.56
60646;BME280;46462;32.608;-117.032;2023-11-19T02:38:51;99730.73;;;25.67;49.64
60646;BME280;46462;32.608;-117.032;2023-11-19T02:41:22;99738.24;;;25.67;49.57
60646;BME280;46462;32.608;-117.032;2023-11-19T02:43:52;99746.92;;;25.65;49.63
60646;BME280;46462;32.608;-117.032;2023-11-19T02:46:23;99755.67;;;25.64;49.65
60646;BME280;46462;32.608;-117.032;2023-11-19T02:48:53;99765.68;;;25.62;49.68
60646;BME280;46462;32.608;-117.032;2023-11-19T02:51:24;99771.50;;;25.62;49.73
60646;BME280;46462;32.608;-117.032;2023-11-19T02:53:54;99765.19;;;25.61;49.68
60646;BME280;46462;32.608;-117.032;2023-11-19T02:56:25;99759.69;;;25.60;49.75
60646;BME280;46462;32.608;-117.032;2023-11-19T02:58:55;99760.02;;;25.60;49.79
60646;BME280;46462;32.608;-117.032;2023-11-19T03:01:26;99765.96;;;25.59;49.77
60646;BME280;46462;32.608;-117.032;2023-11-19T03:03:57;99767.81;;;25.55;49.88
60646;BME280;46462;32.608;-117.032;2023-11-19T03:06:28;99774.31;;;25.55;49.91
60646;BME280;46462;32.608;-117.032;2023-11-19T03:08:58;99773.61;;;25.55;49.92
60646;BME280;46462;32.608;-117.032;2023-11-19T03:11:29;99771.21;;;25.55;49.96
60646;BME280;46462;32.608;-117.032;2023-11-19T03:13:59;99768.49;;;25.53;49.93
60646;BME280;46462;32.608;-117.032;2023-11-19T03:16:30;99771.90;;;25.53;49.99
60646;BME280;46462;32.608;-117.032;2023-11-19T03:19:01;99774.87;;;25.51;50.02
60646;BME280;46462;32.608;-117.032;2023-11-19T03:21:31;99773.02;;;25.52;50.07
60646;BME280;46462;32.608;-117.032;2023-11-19T03:24:02;99777.12;;;25.51;50.09
60646;BME280;46462;32.608;-117.032;2023-11-19T03:26:32;99773.99;;;25.48;50.10
60646;BME280;46462;32.608;-117.032;2023-11-19T03:29:03;99772.45;;;25.47;50.16
60646;BME280;46462;32.608;-117.032;2023-11-19T03:31:33;99777.86;;;25.47;50.10
60646;BME280;46462;32.608;-117.032;2023-11-19T03:34:04;99777.97;;;25.44;50.14
60646;BME280;46462;32.608;-117.032;2023-11-19T03:36:35;99768.54;;;25.44;50.16
60646;BME280;46462;32.608;-117.032;2023-11-19T03:39:05;99763.27;;;25.39;50.24
60646;BME280;46462;32.608;-117.032;2023-11-19T03:41:35;99768.05;;;25.36;50.32
60646;BME280;46462;32.608;-117.032;2023-11-19T03:44:06;99768.20;;;25.35;50.40
60646;BME280;46462;32.608;-117.032;2023-11-19T03:46:37;99771.48;;;25.36;50.35
60646;BME280;46462;32.608;-117.032;2023-11-19T03:49:07;99772.20;;;25.35;50.39
60646;BME280;46462;32.608;-117.032;2023-11-19T03:51:38;99779.11;;;25.36;50.32
60646;BME280;46462;32.608;-117.032;2023-11-19T03:54:08;99784.12;;;25.34;50.35
60646;BME280;46462;32.608;-117.032;2023-11-19T03:56:39;99778.06;;;25.34;50.36
60646;BME280;46462;32.608;-117.032;2023-11-19T03:59:09;99778.66;;;25.32;50.40
60646;BME280;46462;32.608;-117.032;2023-11-19T04:01:40;99779.77;;;25.31;50.40
60646;BME280;46462;32.608;-117.032;2023-11-19T04:04:11;99782.02;;;25.29;50.38
60646;BME280;46462;32.608;-117.032;2023-11-19T04:06:41;99790.82;;;25.26;50.46
60646;BME280;46462;32.608;-117.032;2023-11-19T04:09:12;99791.70;;;25.27;50.41
60646;BME280;46462;32.608;-117.032;2023-11-19T04:11:43;99794.08;;;25.23;50.55
60646;BME280;46462;32.608;-117.032;2023-11-19T04:14:13;99794.84;;;25.19;50.57
60646;BME280;46462;32.608;-117.032;2023-11-19T04:16:44;99799.00;;;25.20;50.46
60646;BME280;46462;32.608;-117.032;2023-11-19T04:19:15;99800.89;;;25.23;50.47
60646;BME280;46462;32.608;-117.032;2023-11-19T04:21:46;99806.14;;;25.24;50.32
60646;BME280;46462;32.608;-117.032;2023-11-19T04:24:16;99803.57;;;25.29;50.17
60646;BME280;46462;32.608;-117.032;2023-11-19T04:26:47;99802.58;;;25.25;50.19
60646;BME280;46462;32.608;-117.032;2023-11-19T04:29:17;99809.87;;;25.26;50.18
60646;BME280;46462;32.608;-117.032;2023-11-19T04:31:48;99810.85;;;25.29;50.22
60646;BME280;46462;32.608;-117.032;2023-11-19T04:34:19;99804.59;;;25.28;50.06
60646;BME280;46462;32.608;-117.032;2023-11-19T04:36:49;99802.23;;;25.26;50.16
60646;BME280;46462;32.608;-117.032;2023-11-19T04:39:20;99804.30;;;25.23;50.26
60646;BME280;46462;32.608;-117.032;2023-11-19T04:41:51;99802.89;;;25.24;50.24
60646;BME280;46462;32.608;-117.032;2023-11-19T04:44:22;99800.88;;;25.23;50.20
60646;BME280;46462;32.608;-117.032;2023-11-19T04:46:52;99800.81;;;25.19;50.25
60646;BME280;46462;32.608;-117.032;2023-11-19T04:49:22;99807.70;;;25.18;50.31
60646;BME280;46462;32.608;-117.032;2023-11-19T04:51:52;99810.35;;;25.19;50.25
60646;BME280;46462;32.608;-117.032;2023-11-19T04:54:23;99808.32;;;25.15;50.35
60646;BME280;46462;32.608;-117.032;2023-11-19T04:56:53;99803.39;;;25.14;50.33
60646;BME280;46462;32.608;-117.032;2023-11-19T04:59:24;99812.05;;;25.10;50.29
60646;BME280;46462;32.608;-117.032;2023-11-19T05:01:55;99815.79;;;25.06;50.45
60646;BME280;46462;32.608;-117.032;2023-11-19T05:04:25;99813.16;;;25.05;50.32
60646;BME280;46462;32.608;-117.032;2023-11-19T05:06:56;99810.83;;;25.02;50.52
60646;BME280;46462;32.608;-117.032;2023-11-19T05:09:27;99811.53;;;25.00;50.51
60646;BME280;46462;32.608;-117.032;2023-11-19T05:11:58;99814.57;;;25.05;50.35
60646;BME280;46462;32.608;-117.032;2023-11-19T05:14:28;99818.09;;;25.04;50.25
60646;BME280;46462;32.608;-117.032;2023-11-19T05:16:59;99814.81;;;25.01;50.36
60646;BME280;46462;32.608;-117.032;2023-11-19T05:19:30;99817.66;;;25.00;50.41
60646;BME280;46462;32.608;-117.032;2023-11-19T05:22:00;99823.95;;;24.96;50.40
60646;BME280;46462;32.608;-117.032;2023-11-19T05:24:32;99819.19;;;24.92;50.44
60646;BME280;46462;32.608;-117.032;2023-11-19T05:27:02;99823.37;;;24.93;50.44
60646;BME280;46462;32.608;-117.032;2023-11-19T05:29:33;99831.94;;;24.86;50.63
60646;BME280;46462;32.608;-117.032;2023-11-19T05:32:03;99831.16;;;24.87;50.60
60646;BME280;46462;32.608;-117.032;2023-11-19T05:34:33;99832.42;;;24.87;50.66
60646;BME280;46462;32.608;-117.032;2023-11-19T05:37:04;99843.08;;;24.88;50.55
60646;BME280;46462;32.608;-117.032;2023-11-19T05:39:34;99856.24;;;24.85;50.61
60646;BME280;46462;32.608;-117.032;2023-11-19T05:42:05;99854.72;;;24.81;50.74
60646;BME280;46462;32.608;-117.032;2023-11-19T05:44:35;99852.06;;;24.77;50.64
60646;BME280;46462;32.608;-117.032;2023-11-19T05:47:07;99852.26;;;24.74;50.48
60646;BME280;46462;32.608;-117.032;2023-11-19T05:49:37;99849.66;;;24.76;50.27
60646;BME280;46462;32.608;-117.032;2023-11-19T05:52:07;99847.21;;;24.76;50.34
60646;BME280;46462;32.608;-117.032;2023-11-19T05:54:38;99840.98;;;24.72;50.39
60646;BME280;46462;32.608;-117.032;2023-11-19T05:57:09;99837.16;;;24.70;50.44
60646;BME280;46462;32.608;-117.032;2023-11-19T05:59:39;99830.36;;;24.70;50.46
60646;BME280;46462;32.608;-117.032;2023-11-19T06:02:10;99824.11;;;24.69;50.07
60646;BME280;46462;32.608;-117.032;2023-11-19T06:04:41;99817.58;;;24.66;50.46
60646;BME280;46462;32.608;-117.032;2023-11-19T06:07:12;99824.91;;;24.67;49.99
60646;BME280;46462;32.608;-117.032;2023-11-19T06:09:42;99836.59;;;24.63;50.22
60646;BME280;46462;32.608;-117.032;2023-11-19T06:12:13;99846.98;;;24.64;50.33
60646;BME280;46462;32.608;-117.032;2023-11-19T06:14:43;99846.92;;;24.58;50.20
60646;BME280;46462;32.608;-117.032;2023-11-19T06:17:14;99848.85;;;24.61;50.35
60646;BME280;46462;32.608;-117.032;2023-11-19T06:19:45;99853.83;;;24.58;50.63
60646;BME280;46462;32.608;-117.032;2023-11-19T06:22:15;99853.10;;;24.63;50.34
60646;BME280;46462;32.608;-117.032;2023-11-19T06:24:46;99845.60;;;24.60;50.38
60646;BME280;46462;32.608;-117.032;2023-11-19T06:27:22;99842.71;;;24.66;50.03
60646;BME280;46462;32.608;-117.032;2023-11-19T06:29:47;99845.34;;;24.63;50.35
60646;BME280;46462;32.608;-117.032;2023-11-19T06:32:17;99846.33;;;24.67;50.15
60646;BME280;46462;32.608;-117.032;2023-11-19T06:34:48;99843.76;;;24.61;50.08
60646;BME280;46462;32.608;-117.032;2023-11-19T06:37:18;99841.32;;;24.57;50.31
60646;BME280;46462;32.608;-117.032;2023-11-19T06:39:49;99842.28;;;24.56;50.31
60646;BME280;46462;32.608;-117.032;2023-11-19T06:42:20;99842.92;;;24.57;50.27
60646;BME280;46462;32.608;-117.032;2023-11-19T06:44:50;99843.90;;;24.54;50.37
60646;BME280;46462;32.608;-117.032;2023-11-19T06:47:21;99841.38;;;24.56;50.12
60646;BME280;46462;32.608;-117.032;2023-11-19T06:49:52;99845.16;;;24.57;50.09
60646;BME280;46462;32.608;-117.032;2023-11-19T06:52:22;99841.40;;;24.53;50.18
60646;BME280;46462;32.608;-117.032;2023-11-19T06:54:53;99838.92;;;24.55;50.06
60646;BME280;46462;32.608;-117.032;2023-11-19T06:57:24;99832.89;;;24.56;50.15
60646;BME280;46462;32.608;-117.032;2023-11-19T06:59:54;99833.10;;;24.59;49.93
60646;BME280;46462;32.608;-117.032;2023-11-19T07:02:25;99832.14;;;24.56;49.97
60646;BME280;46462;32.608;-117.032;2023-11-19T07:04:55;99827.33;;;24.50;50.12
60646;BME280;46462;32.608;-117.032;2023-11-19T07:07:26;99818.11;;;24.52;49.92
60646;BME280;46462;32.608;-117.032;2023-11-19T07:09:57;99800.78;;;24.54;49.95
60646;BME280;46462;32.608;-117.032;2023-11-19T07:12:28;99793.18;;;24.48;50.20
60646;BME280;46462;32.608;-117.032;2023-11-19T07:14:58;99788.64;;;24.41;49.87
60646;BME280;46462;32.608;-117.032;2023-11-19T07:17:29;99776.52;;;24.38;49.93
60646;BME280;46462;32.608;-117.032;2023-11-19T07:20:00;99774.68;;;24.43;50.15
60646;BME280;46462;32.608;-117.032;2023-11-19T07:22:30;99771.54;;;24.45;49.90
60646;BME280;46462;32.608;-117.032;2023-11-19T07:25:01;99766.76;;;24.33;50.43
60646;BME280;46462;32.608;-117.032;2023-11-19T07:27:31;99767.58;;;24.36;50.24
60646;BME280;46462;32.608;-117.032;2023-11-19T07:30:02;99770.32;;;24.28;50.49
60646;BME280;46462;32.608;-117.032;2023-11-19T07:32:33;99771.40;;;24.28;50.31
60646;BME280;46462;32.608;-117.032;2023-11-19T07:35:07;99774.59;;;24.33;50.40
60646;BME280;46462;32.608;-117.032;2023-11-19T07:37:37;99770.36;;;24.30;50.36
60646;BME280;46462;32.608;-117.032;2023-11-19T07:40:08;99764.48;;;24.22;50.68
60646;BME280;46462;32.608;-117.032;2023-11-19T07:42:38;99759.54;;;24.22;50.20
60646;BME280;46462;32.608;-117.032;2023-11-19T07:45:10;99766.98;;;24.18;50.67
60646;BME280;46462;32.608;-117.032;2023-11-19T07:47:40;99777.11;;;24.19;50.42
60646;BME280;46462;32.608;-117.032;2023-11-19T07:50:11;99779.93;;;24.15;50.79
60646;BME280;46462;32.608;-117.032;2023-11-19T07:52:41;99788.57;;;24.18;50.43
60646;BME280;46462;32.608;-117.032;2023-11-19T07:55:11;99794.19;;;24.10;50.28
60646;BME280;46462;32.608;-117.032;2023-11-19T07:57:42;99791.93;;;24.14;50.37
60646;BME280;46462;32.608;-117.032;2023-11-19T08:00:13;99790.17;;;24.05;50.46
60646;BME280;46462;32.608;-117.032;2023-11-19T08:02:43;99787.82;;;24.05;50.18
60646;BME280;46462;32.608;-117.032;2023-11-19T08:05:14;99793.68;;;24.02;50.56
60646;BME280;46462;32.608;-117.032;2023-11-19T08:07:44;99794.75;;;24.06;50.33
60646;BME280;46462;32.608;-117.032;2023-11-19T08:10:15;99792.74;;;23.96;50.61
60646;BME280;46462;32.608;-117.032;2023-11-19T08:12:46;99796.92;;;24.00;50.48
60646;BME280;46462;32.608;-117.032;2023-11-19T08:15:16;99794.78;;;23.96;50.49
60646;BME280;46462;32.608;-117.032;2023-11-19T08:17:47;99794.90;;;24.01;50.30
60646;BME280;46462;32.608;-117.032;2023-11-19T08:20:18;99793.83;;;24.00;50.06
60646;BME280;46462;32.608;-117.032;2023-11-19T08:22:48;99795.93;;;24.06;49.96
60646;BME280;46462;32.608;-117.032;2023-11-19T08:25:18;99791.81;;;24.07;50.13
60646;BME280;46462;32.608;-117.032;2023-11-19T08:27:49;99787.83;;;23.99;50.35
60646;BME280;46462;32.608;-117.032;2023-11-19T08:30:20;99784.90;;;23.96;50.36
60646;BME280;46462;32.608;-117.032;2023-11-19T08:32:51;99787.86;;;23.95;50.54
60646;BME280;46462;32.608;-117.032;2023-11-19T08:35:21;99785.18;;;23.96;50.61
60646;BME280;46462;32.608;-117.032;2023-11-19T08:37:51;99784.28;;;24.00;50.48
60646;BME280;46462;32.608;-117.032;2023-11-19T08:40:22;99788.27;;;24.02;50.41
60646;BME280;46462;32.608;-117.032;2023-11-19T08:42:53;99787.85;;;23.99;50.48
60646;BME280;46462;32.608;-117.032;2023-11-19T08:45:23;99792.88;;;23.99;50.31
60646;BME280;46462;32.608;-117.032;2023-11-19T08:47:54;99792.93;;;23.88;50.23
60646;BME280;46462;32.608;-117.032;2023-11-19T08:50:25;99796.13;;;23.81;50.94
60646;BME280;46462;32.608;-117.032;2023-11-19T08:52:55;99805.66;;;23.87;50.54
60646;BME280;46462;32.608;-117.032;2023-11-19T08:55:26;99813.33;;;23.85;50.63
60646;BME280;46462;32.608;-117.032;2023-11-19T08:57:56;99818.29;;;23.81;50.64
60646;BME280;46462;32.608;-117.032;2023-11-19T09:00:27;99825.90;;;23.91;50.47
60646;BME280;46462;32.608;-117.032;2023-11-19T09:02:58;99831.58;;;23.91;50.47
60646;BME280;46462;32.608;-117.032;2023-11-19T09:05:28;99833.82;;;23.92;50.28
60646;BME280;46462;32.608;-117.032;2023-11-19T09:07:59;99836.50;;;23.82;50.69
60646;BME280;46462;32.608;-117.032;2023-11-19T09:10:29;99841.58;;;23.79;50.32
60646;BME280;46462;32.608;-117.032;2023-11-19T09:13:00;99847.67;;;23.87;50.34
60646;BME280;46462;32.608;-117.032;2023-11-19T09:15:31;99848.10;;;23.78;50.55
60646;BME280;46462;32.608;-117.032;2023-11-19T09:18:01;99846.42;;;23.76;50.74
60646;BME280;46462;32.608;-117.032;2023-11-19T09:20:32;99848.49;;;23.77;50.41
60646;BME280;46462;32.608;-117.032;2023-11-19T09:23:03;99860.33;;;23.77;50.12
60646;BME280;46462;32.608;-117.032;2023-11-19T09:25:34;99866.43;;;23.70;50.80
60646;BME280;46462;32.608;-117.032;2023-11-19T09:28:05;99873.09;;;23.66;50.76
60646;BME280;46462;32.608;-117.032;2023-11-19T09:30:35;99872.72;;;23.69;50.87
60646;BME280;46462;32.608;-117.032;2023-11-19T09:33:05;99877.06;;;23.74;50.43
60646;BME280;46462;32.608;-117.032;2023-11-19T09:35:36;99876.64;;;23.68;50.51
60646;BME280;46462;32.608;-117.032;2023-11-19T09:38:06;99867.90;;;23.61;50.86
60646;BME280;46462;32.608;-117.032;2023-11-19T09:40:37;99866.32;;;23.64;50.49
60646;BME280;46462;32.608;-117.032;2023-11-19T09:43:08;99864.78;;;23.63;50.72
60646;BME280;46462;32.608;-117.032;2023-11-19T09:45:45;99858.51;;;23.62;50.37
60646;BME280;46462;32.608;-117.032;2023-11-19T09:48:09;99858.04;;;23.59;50.83
60646;BME280;46462;32.608;-117.032;2023-11-19T09:50:40;99851.09;;;23.58;50.81
60646;BME280;46462;32.608;-117.032;2023-11-19T09:53:11;99848.65;;;23.59;50.72
60646;BME280;46462;32.608;-117.032;2023-11-19T09:55:41;99847.45;;;23.52;50.98
60646;BME280;46462;32.608;-117.032;2023-11-19T09:58:12;99845.59;;;23.48;50.91
60646;BME280;46462;32.608;-117.032;2023-11-19T10:00:42;99843.82;;;23.51;50.77
60646;BME280;46462;32.608;-117.032;2023-11-19T10:03:13;99842.05;;;23.54;50.68
60646;BME280;46462;32.608;-117.032;2023-11-19T10:05:44;99845.46;;;23.52;50.58
60646;BME280;46462;32.608;-117.032;2023-11-19T10:08:14;99840.69;;;23.49;50.83
60646;BME280;46462;32.608;-117.032;2023-11-19T10:10:45;99845.57;;;23.52;50.83
60646;BME280;46462;32.608;-117.032;2023-11-19T10:13:16;99841.85;;;23.47;50.90
60646;BME280;46462;32.608;-117.032;2023-11-19T10:15:48;99837.93;;;23.57;50.59
60646;BME280;46462;32.608;-117.032;2023-11-19T10:18:17;99840.19;;;23.54;50.64
60646;BME280;46462;32.608;-117.032;2023-11-19T10:20:48;99840.48;;;23.51;50.74
60646;BME280;46462;32.608;-117.032;2023-11-19T10:23:18;99839.32;;;23.61;50.44
60646;BME280;46462;32.608;-117.032;2023-11-19T10:25:53;99834.14;;;23.56;50.45
60646;BME280;46462;32.608;-117.032;2023-11-19T10:28:20;99830.54;;;23.52;50.66
60646;BME280;46462;32.608;-117.032;2023-11-19T10:30:52;99829.95;;;23.53;50.68
60646;BME280;46462;32.608;-117.032;2023-11-19T10:33:21;99833.33;;;23.48;50.69
60646;BME280;46462;32.608;-117.032;2023-11-19T10:35:53;99838.76;;;23.51;50.56
60646;BME280;46462;32.608;-117.032;2023-11-19T10:38:22;99848.41;;;23.51;50.24
60646;BME280;46462;32.608;-117.032;2023-11-19T10:40:53;99846.55;;;23.49;50.45
60646;BME280;46462;32.608;-117.032;2023-11-19T10:43:23;99847.61;;;23.47;50.38
60646;BME280;46462;32.608;-117.032;2023-11-19T10:45:54;99847.95;;;23.45;50.63
60646;BME280;46462;32.608;-117.032;2023-11-19T10:48:24;99854.25;;;23.43;50.49
60646;BME280;46462;32.608;-117.032;2023-11-19T10:50:55;99846.97;;;23.46;50.57
60646;BME280;46462;32.608;-117.032;2023-11-19T10:53:25;99832.16;;;23.49;50.35
60646;BME280;46462;32.608;-117.032;2023-11-19T10:55:58;99824.49;;;23.49;50.48
60646;BME280;46462;32.608;-117.032;2023-11-19T10:58:29;99812.16;;;23.44;50.53
60646;BME280;46462;32.608;-117.032;2023-11-19T11:01:02;99794.90;;;23.42;50.49
60646;BME280;46462;32.608;-117.032;2023-11-19T11:03:33;99785.85;;;23.41;50.54
60646;BME280;46462;32.608;-117.032;2023-11-19T11:05:58;99792.78;;;23.48;49.99
60646;BME280;46462;32.608;-117.032;2023-11-19T11:08:29;99796.32;;;23.44;50.34
60646;BME280;46462;32.608;-117.032;2023-11-19T11:10:59;99790.04;;;23.47;50.28
60646;BME280;46462;32.608;-117.032;2023-11-19T11:13:30;99787.39;;;23.35;50.67
60646;BME280;46462;32.608;-117.032;2023-11-19T11:16:01;99788.55;;;23.42;50.38
60646;BME280;46462;32.608;-117.032;2023-11-19T11:18:31;99795.07;;;23.38;50.57
60646;BME280;46462;32.608;-117.032;2023-11-19T11:21:09;99794.72;;;23.42;50.20
60646;BME280;46462;32.608;-117.032;2023-11-19T11:23:44;99797.30;;;23.39;50.55
60646;BME280;46462;32.608;-117.032;2023-11-19T11:26:16;99784.34;;;23.36;50.77
60646;BME280;46462;32.608;-117.032;2023-11-19T11:28:39;99782.11;;;23.29;50.75
60646;BME280;46462;32.608;-117.032;2023-11-19T11:31:16;99768.91;;;23.33;50.72
60646;BME280;46462;32.608;-117.032;2023-11-19T11:33:44;99757.86;;;23.33;50.45
60646;BME280;46462;32.608;-117.032;2023-11-19T11:36:15;99747.00;;;23.32;50.67
60646;BME280;46462;32.608;-117.032;2023-11-19T11:38:37;99757.98;;;23.32;50.38
60646;BME280;46462;32.608;-117.032;2023-11-19T11:43:45;99759.32;;;23.27;50.77
60646;BME280;46462;32.608;-117.032;2023-11-19T11:46:08;99754.46;;;23.29;50.77
60646;BME280;46462;32.608;-117.032;2023-11-19T11:48:43;99757.23;;;23.24;50.82
60646;BME280;46462;32.608;-117.032;2023-11-19T11:51:09;99760.75;;;23.25;50.98
60646;BME280;46462;32.608;-117.032;2023-11-19T11:53:42;99764.30;;;23.26;50.72
60646;BME280;46462;32.608;-117.032;2023-11-19T11:56:11;99767.39;;;23.22;50.99
60646;BME280;46462;32.608;-117.032;2023-11-19T11:58:41;99773.89;;;23.18;51.04
60646;BME280;46462;32.608;-117.032;2023-11-19T12:01:16;99778.09;;;23.18;51.03
60646;BME280;46462;32.608;-117.032;2023-11-19T12:03:43;99783.29;;;23.25;50.65
60646;BME280;46462;32.608;-117.032;2023-11-19T12:06:13;99784.29;;;23.16;50.77
60646;BME280;46462;32.608;-117.032;2023-11-19T12:08:44;99784.06;;;23.16;50.65
60646;BME280;46462;32.608;-117.032;2023-11-19T12:11:17;99782.92;;;23.16;50.79
60646;BME280;46462;32.608;-117.032;2023-11-19T12:13:55;99785.05;;;23.21;50.63
60646;BME280;46462;32.608;-117.032;2023-11-19T12:16:16;99781.94;;;23.15;50.97
60646;BME280;46462;32.608;-117.032;2023-11-19T12:18:47;99777.78;;;23.13;51.03
60646;BME280;46462;32.608;-117.032;2023-11-19T12:23:47;99790.10;;;23.18;50.64
60646;BME280;46462;32.608;-117.032;2023-11-19T12:31:18;99806.39;;;23.12;50.64
60646;BME280;46462;32.608;-117.032;2023-11-19T12:33:50;99803.55;;;23.20;50.69
60646;BME280;46462;32.608;-117.032;2023-11-19T12:36:20;99804.11;;;23.18;50.69
60646;BME280;46462;32.608;-117.032;2023-11-19T12:38:50;99808.80;;;23.12;50.83
60646;BME280;46462;32.608;-117.032;2023-11-19T12:41:21;99804.71;;;23.02;50.84
60646;BME280;46462;32.608;-117.032;2023-11-19T12:43:52;99813.47;;;23.08;50.99
60646;BME280;46462;32.608;-117.032;2023-11-19T12:46:23;99813.85;;;23.14;50.86
60646;BME280;46462;32.608;-117.032;2023-11-19T12:48:52;99812.32;;;23.09;51.06
60646;BME280;46462;32.608;-117.032;2023-11-19T12:51:23;99810.06;;;23.11;51.02
60646;BME280;46462;32.608;-117.032;2023-11-19T12:53:54;99809.20;;;23.13;50.85
60646;BME280;46462;32.608;-117.032;2023-11-19T12:56:25;99812.81;;;23.08;50.91